sensor_id;sensor_type;location;lat;lon;timestamp;P1;durP1;ratioP1;P2;durP2;ratioP2
22103;SDS011;11218;48.886;9.426;2022-11-03T00:01:14;554.60;;;157.85;;
22103;SDS011;11218;48.886;9.426;2022-11-03T00:03:42;560.75;;;160.50;;
22103;SDS011;11218;48.886;9.426;2022-11-03T00:06:10;562.35;;;162.40;;
22103;SDS011;11218;48.886;9.426;2022-11-03T00:08:39;558.28;;;158.85;;
22103;SDS011;11218;48.886;9.426;2022-11-03T00:11:09;557.10;;;159.98;;
22103;SDS011;11218;48.886;9.426;2022-11-03T00:13:39;559.53;;;161.13;;
22103;SDS011;11218;48.886;9.426;2022-11-03T00:16:09;569.20;;;165.07;;
22103;SDS011;11218;48.886;9.426;2022-11-03T00:18:38;564.03;;;163.52;;
22103;SDS011;11218;48.886;9.426;2022-11-03T00:21:07;582.83;;;170.20;;
22103;SDS011;11218;48.886;9.426;2022-11-03T00:23:37;558.95;;;159.88;;
22103;SDS011;11218;48.886;9.426;2022-11-03T00:26:08;561.20;;;161.55;;
22103;SDS011;11218;48.886;9.426;2022-11-03T00:28:38;567.15;;;166.20;;
22103;SDS011;11218;48.886;9.426;2022-11-03T00:31:07;566.22;;;162.38;;
22103;SDS011;11218;48.886;9.426;2022-11-03T00:33:36;564.50;;;161.35;;
22103;SDS011;11218;48.886;9.426;2022-11-03T00:36:06;560.92;;;159.23;;
22103;SDS011;11218;48.886;9.426;2022-11-03T00:38:35;556.97;;;160.40;;
22103;SDS011;11218;48.886;9.426;2022-11-03T00:41:04;569.83;;;162.23;;
22103;SDS011;11218;48.886;9.426;2022-11-03T00:43:34;564.17;;;161.68;;
22103;SDS011;11218;48.886;9.426;2022-11-03T00:46:02;566.05;;;161.45;;
22103;SDS011;11218;48.886;9.426;2022-11-03T00:48:32;561.13;;;159.52;;
22103;SDS011;11218;48.886;9.426;2022-11-03T00:51:05;558.60;;;159.55;;
22103;SDS011;11218;48.886;9.426;2022-11-03T00:53:35;567.30;;;161.23;;
22103;SDS011;11218;48.886;9.426;2022-11-03T00:56:05;562.40;;;161.30;;
22103;SDS011;11218;48.886;9.426;2022-11-03T00:58:35;563.80;;;160.68;;
22103;SDS011;11218;48.886;9.426;2022-11-03T01:01:04;562.55;;;159.00;;
22103;SDS011;11218;48.886;9.426;2022-11-03T01:03:34;572.53;;;161.80;;
22103;SDS011;11218;48.886;9.426;2022-11-03T01:06:04;570.75;;;162.82;;
22103;SDS011;11218;48.886;9.426;2022-11-03T01:08:50;567.10;;;159.32;;
22103;SDS011;11218;48.886;9.426;2022-11-03T01:11:19;574.28;;;165.50;;
22103;SDS011;11218;48.886;9.426;2022-11-03T01:14:19;569.30;;;162.05;;
22103;SDS011;11218;48.886;9.426;2022-11-03T01:16:47;566.50;;;157.80;;
22103;SDS011;11218;48.886;9.426;2022-11-03T01:19:15;571.33;;;161.45;;
22103;SDS011;11218;48.886;9.426;2022-11-03T01:21:43;569.25;;;162.13;;
22103;SDS011;11218;48.886;9.426;2022-11-03T01:24:11;568.80;;;161.82;;
22103;SDS011;11218;48.886;9.426;2022-11-03T01:26:39;571.63;;;161.40;;
22103;SDS011;11218;48.886;9.426;2022-11-03T01:29:06;572.80;;;161.10;;
22103;SDS011;11218;48.886;9.426;2022-11-03T01:31:36;574.72;;;162.60;;
22103;SDS011;11218;48.886;9.426;2022-11-03T01:34:04;576.55;;;163.50;;
22103;SDS011;11218;48.886;9.426;2022-11-03T01:36:32;573.70;;;164.98;;
22103;SDS011;11218;48.886;9.426;2022-11-03T01:39:00;574.08;;;163.88;;
22103;SDS011;11218;48.886;9.426;2022-11-03T01:41:28;579.50;;;166.65;;
22103;SDS011;11218;48.886;9.426;2022-11-03T01:47:02;575.67;;;163.85;;
22103;SDS011;11218;48.886;9.426;2022-11-03T01:49:37;582.92;;;166.68;;
22103;SDS011;11218;48.886;9.426;2022-11-03T01:52:12;571.28;;;160.77;;
22103;SDS011;11218;48.886;9.426;2022-11-03T01:54:45;569.80;;;159.75;;
22103;SDS011;11218;48.886;9.426;2022-11-03T01:57:18;572.90;;;162.60;;
22103;SDS011;11218;48.886;9.426;2022-11-03T01:59:50;568.30;;;163.02;;
22103;SDS011;11218;48.886;9.426;2022-11-03T02:02:21;574.25;;;163.50;;
22103;SDS011;11218;48.886;9.426;2022-11-03T02:04:49;574.05;;;163.45;;
22103;SDS011;11218;48.886;9.426;2022-11-03T02:07:18;569.90;;;162.48;;
22103;SDS011;11218;48.886;9.426;2022-11-03T02:09:51;567.38;;;159.40;;
22103;SDS011;11218;48.886;9.426;2022-11-03T02:12:19;576.17;;;163.20;;
22103;SDS011;11218;48.886;9.426;2022-11-03T02:14:49;583.75;;;163.75;;
22103;SDS011;11218;48.886;9.426;2022-11-03T02:17:20;575.47;;;162.13;;
22103;SDS011;11218;48.886;9.426;2022-11-03T02:19:54;584.30;;;164.52;;
22103;SDS011;11218;48.886;9.426;2022-11-03T02:22:36;582.78;;;165.70;;
22103;SDS011;11218;48.886;9.426;2022-11-03T02:25:13;588.40;;;169.02;;
22103;SDS011;11218;48.886;9.426;2022-11-03T02:27:46;588.75;;;164.38;;
22103;SDS011;11218;48.886;9.426;2022-11-03T02:30:14;590.38;;;167.23;;
22103;SDS011;11218;48.886;9.426;2022-11-03T02:32:47;589.00;;;168.25;;
22103;SDS011;11218;48.886;9.426;2022-11-03T02:35:21;583.30;;;160.80;;
22103;SDS011;11218;48.886;9.426;2022-11-03T02:37:54;594.42;;;167.68;;
22103;SDS011;11218;48.886;9.426;2022-11-03T02:40:27;589.30;;;164.20;;
22103;SDS011;11218;48.886;9.426;2022-11-03T02:43:00;590.47;;;166.55;;
22103;SDS011;11218;48.886;9.426;2022-11-03T02:45:30;585.42;;;165.25;;
22103;SDS011;11218;48.886;9.426;2022-11-03T02:47:58;592.88;;;168.35;;
22103;SDS011;11218;48.886;9.426;2022-11-03T02:50:28;585.22;;;165.38;;
22103;SDS011;11218;48.886;9.426;2022-11-03T02:52:58;590.80;;;166.45;;
22103;SDS011;11218;48.886;9.426;2022-11-03T02:55:30;591.15;;;163.35;;
22103;SDS011;11218;48.886;9.426;2022-11-03T02:58:07;595.72;;;169.50;;
22103;SDS011;11218;48.886;9.426;2022-11-03T03:00:44;596.88;;;168.40;;
22103;SDS011;11218;48.886;9.426;2022-11-03T03:03:17;608.03;;;175.73;;
22103;SDS011;11218;48.886;9.426;2022-11-03T03:05:49;610.30;;;177.27;;
22103;SDS011;11218;48.886;9.426;2022-11-03T03:08:22;604.00;;;173.35;;
22103;SDS011;11218;48.886;9.426;2022-11-03T03:10:52;599.17;;;168.90;;
22103;SDS011;11218;48.886;9.426;2022-11-03T03:13:23;599.17;;;171.52;;
22103;SDS011;11218;48.886;9.426;2022-11-03T03:15:54;594.10;;;165.40;;
22103;SDS011;11218;48.886;9.426;2022-11-03T03:18:35;589.75;;;162.55;;
22103;SDS011;11218;48.886;9.426;2022-11-03T03:21:15;596.83;;;167.13;;
22103;SDS011;11218;48.886;9.426;2022-11-03T03:23:47;591.60;;;166.43;;
22103;SDS011;11218;48.886;9.426;2022-11-03T03:26:19;593.72;;;165.30;;
22103;SDS011;11218;48.886;9.426;2022-11-03T03:28:54;589.70;;;165.73;;
22103;SDS011;11218;48.886;9.426;2022-11-03T03:31:24;587.25;;;162.18;;
22103;SDS011;11218;48.886;9.426;2022-11-03T03:33:55;590.05;;;165.20;;
22103;SDS011;11218;48.886;9.426;2022-11-03T03:36:35;587.03;;;164.50;;
22103;SDS011;11218;48.886;9.426;2022-11-03T03:39:06;594.22;;;167.07;;
22103;SDS011;11218;48.886;9.426;2022-11-03T03:41:36;595.15;;;170.18;;
22103;SDS011;11218;48.886;9.426;2022-11-03T03:44:07;599.03;;;169.95;;
22103;SDS011;11218;48.886;9.426;2022-11-03T03:46:37;590.72;;;168.25;;
22103;SDS011;11218;48.886;9.426;2022-11-03T03:49:08;588.50;;;163.90;;
22103;SDS011;11218;48.886;9.426;2022-11-03T03:51:36;593.08;;;166.50;;
22103;SDS011;11218;48.886;9.426;2022-11-03T03:54:05;590.83;;;164.88;;
22103;SDS011;11218;48.886;9.426;2022-11-03T03:56:34;587.10;;;163.57;;
22103;SDS011;11218;48.886;9.426;2022-11-03T03:59:08;582.35;;;159.20;;
22103;SDS011;11218;48.886;9.426;2022-11-03T04:01:36;585.30;;;163.18;;
22103;SDS011;11218;48.886;9.426;2022-11-03T04:04:04;587.95;;;165.73;;
22103;SDS011;11218;48.886;9.426;2022-11-03T04:06:32;590.50;;;166.02;;
22103;SDS011;11218;48.886;9.426;2022-11-03T04:09:00;585.90;;;163.27;;
22103;SDS011;11218;48.886;9.426;2022-11-03T04:11:28;591.90;;;165.75;;
22103;SDS011;11218;48.886;9.426;2022-11-03T04:14:15;582.45;;;157.35;;
22103;SDS011;11218;48.886;9.426;2022-11-03T04:17:00;587.08;;;161.40;;
22103;SDS011;11218;48.886;9.426;2022-11-03T04:19:46;588.88;;;161.90;;
22103;SDS011;11218;48.886;9.426;2022-11-03T04:22:31;589.30;;;162.82;;
22103;SDS011;11218;48.886;9.426;2022-11-03T04:25:00;586.15;;;161.63;;
22103;SDS011;11218;48.886;9.426;2022-11-03T04:27:29;588.03;;;162.32;;
22103;SDS011;11218;48.886;9.426;2022-11-03T04:30:06;587.45;;;163.65;;
22103;SDS011;11218;48.886;9.426;2022-11-03T04:32:41;588.05;;;164.27;;
22103;SDS011;11218;48.886;9.426;2022-11-03T04:35:13;594.88;;;166.85;;
22103;SDS011;11218;48.886;9.426;2022-11-03T04:37:43;599.88;;;170.60;;
22103;SDS011;11218;48.886;9.426;2022-11-03T04:40:14;583.63;;;162.82;;
22103;SDS011;11218;48.886;9.426;2022-11-03T04:42:43;596.92;;;170.10;;
22103;SDS011;11218;48.886;9.426;2022-11-03T04:45:16;591.78;;;166.45;;
22103;SDS011;11218;48.886;9.426;2022-11-03T04:47:49;593.30;;;167.57;;
22103;SDS011;11218;48.886;9.426;2022-11-03T04:50:19;588.47;;;166.40;;
22103;SDS011;11218;48.886;9.426;2022-11-03T04:52:50;586.85;;;162.18;;
22103;SDS011;11218;48.886;9.426;2022-11-03T04:55:24;591.92;;;164.80;;
22103;SDS011;11218;48.886;9.426;2022-11-03T04:57:53;592.42;;;163.73;;
22103;SDS011;11218;48.886;9.426;2022-11-03T05:00:28;597.38;;;167.05;;
22103;SDS011;11218;48.886;9.426;2022-11-03T05:02:56;589.33;;;168.13;;
22103;SDS011;11218;48.886;9.426;2022-11-03T05:05:24;591.95;;;164.35;;
22103;SDS011;11218;48.886;9.426;2022-11-03T05:07:53;594.33;;;164.80;;
22103;SDS011;11218;48.886;9.426;2022-11-03T05:10:24;586.22;;;164.77;;
22103;SDS011;11218;48.886;9.426;2022-11-03T05:12:54;585.92;;;159.48;;
22103;SDS011;11218;48.886;9.426;2022-11-03T05:15:28;588.85;;;161.43;;
22103;SDS011;11218;48.886;9.426;2022-11-03T05:17:58;583.50;;;162.93;;
22103;SDS011;11218;48.886;9.426;2022-11-03T05:20:30;588.58;;;160.65;;
22103;SDS011;11218;48.886;9.426;2022-11-03T05:23:01;593.63;;;163.32;;
22103;SDS011;11218;48.886;9.426;2022-11-03T05:25:33;592.70;;;164.52;;
22103;SDS011;11218;48.886;9.426;2022-11-03T05:28:07;612.85;;;175.98;;
22103;SDS011;11218;48.886;9.426;2022-11-03T05:30:43;602.22;;;167.80;;
22103;SDS011;11218;48.886;9.426;2022-11-03T05:33:14;611.75;;;174.05;;
22103;SDS011;11218;48.886;9.426;2022-11-03T05:35:47;609.17;;;172.02;;
22103;SDS011;11218;48.886;9.426;2022-11-03T05:38:17;609.60;;;172.85;;
22103;SDS011;11218;48.886;9.426;2022-11-03T05:40:48;604.88;;;172.05;;
22103;SDS011;11218;48.886;9.426;2022-11-03T05:43:18;597.58;;;166.63;;
22103;SDS011;11218;48.886;9.426;2022-11-03T05:45:48;597.55;;;167.18;;
22103;SDS011;11218;48.886;9.426;2022-11-03T05:48:21;602.97;;;173.57;;
22103;SDS011;11218;48.886;9.426;2022-11-03T05:50:56;592.00;;;163.77;;
22103;SDS011;11218;48.886;9.426;2022-11-03T05:53:28;625.22;;;178.80;;
22103;SDS011;11218;48.886;9.426;2022-11-03T05:55:58;595.25;;;165.20;;
22103;SDS011;11218;48.886;9.426;2022-11-03T05:58:29;602.13;;;166.98;;
22103;SDS011;11218;48.886;9.426;2022-11-03T06:01:03;593.05;;;166.15;;
22103;SDS011;11218;48.886;9.426;2022-11-03T06:03:38;586.30;;;162.48;;
22103;SDS011;11218;48.886;9.426;2022-11-03T06:06:10;594.55;;;164.18;;
22103;SDS011;11218;48.886;9.426;2022-11-03T06:08:42;588.78;;;163.48;;
22103;SDS011;11218;48.886;9.426;2022-11-03T06:11:15;585.92;;;161.18;;
22103;SDS011;11218;48.886;9.426;2022-11-03T06:13:47;589.97;;;162.57;;
22103;SDS011;11218;48.886;9.426;2022-11-03T06:16:21;590.55;;;164.25;;
22103;SDS011;11218;48.886;9.426;2022-11-03T06:19:06;589.95;;;160.90;;
22103;SDS011;11218;48.886;9.426;2022-11-03T06:21:45;612.13;;;170.93;;
22103;SDS011;11218;48.886;9.426;2022-11-03T06:24:14;604.65;;;169.00;;
22103;SDS011;11218;48.886;9.426;2022-11-03T06:26:44;603.97;;;171.32;;
22103;SDS011;11218;48.886;9.426;2022-11-03T06:29:14;586.42;;;161.65;;
22103;SDS011;11218;48.886;9.426;2022-11-03T06:31:46;593.70;;;165.25;;
22103;SDS011;11218;48.886;9.426;2022-11-03T06:34:21;590.83;;;161.27;;
22103;SDS011;11218;48.886;9.426;2022-11-03T06:37:15;595.70;;;162.02;;
22103;SDS011;11218;48.886;9.426;2022-11-03T06:39:47;590.83;;;163.55;;
22103;SDS011;11218;48.886;9.426;2022-11-03T06:42:18;599.67;;;164.90;;
22103;SDS011;11218;48.886;9.426;2022-11-03T06:44:53;590.78;;;161.27;;
22103;SDS011;11218;48.886;9.426;2022-11-03T06:47:24;590.58;;;161.75;;
22103;SDS011;11218;48.886;9.426;2022-11-03T06:49:54;591.03;;;160.70;;
22103;SDS011;11218;48.886;9.426;2022-11-03T06:52:25;592.85;;;163.02;;
22103;SDS011;11218;48.886;9.426;2022-11-03T06:54:59;590.85;;;163.38;;
22103;SDS011;11218;48.886;9.426;2022-11-03T06:57:45;589.92;;;161.05;;
22103;SDS011;11218;48.886;9.426;2022-11-03T07:00:18;585.67;;;157.95;;
22103;SDS011;11218;48.886;9.426;2022-11-03T07:03:09;594.80;;;162.32;;
22103;SDS011;11218;48.886;9.426;2022-11-03T07:05:43;590.08;;;163.45;;
22103;SDS011;11218;48.886;9.426;2022-11-03T07:08:18;587.47;;;161.38;;
22103;SDS011;11218;48.886;9.426;2022-11-03T07:10:49;588.17;;;160.40;;
22103;SDS011;11218;48.886;9.426;2022-11-03T07:13:24;590.60;;;160.65;;
22103;SDS011;11218;48.886;9.426;2022-11-03T07:15:53;593.17;;;163.43;;
22103;SDS011;11218;48.886;9.426;2022-11-03T07:18:24;588.65;;;160.75;;
22103;SDS011;11218;48.886;9.426;2022-11-03T07:20:55;591.15;;;163.70;;
22103;SDS011;11218;48.886;9.426;2022-11-03T07:23:27;594.35;;;164.07;;
22103;SDS011;11218;48.886;9.426;2022-11-03T07:25:59;586.80;;;163.02;;
22103;SDS011;11218;48.886;9.426;2022-11-03T07:28:29;589.80;;;160.73;;
22103;SDS011;11218;48.886;9.426;2022-11-03T07:31:00;593.72;;;166.60;;
22103;SDS011;11218;48.886;9.426;2022-11-03T07:33:43;589.15;;;164.45;;
22103;SDS011;11218;48.886;9.426;2022-11-03T07:36:14;591.35;;;166.48;;
22103;SDS011;11218;48.886;9.426;2022-11-03T07:38:47;589.95;;;161.38;;
22103;SDS011;11218;48.886;9.426;2022-11-03T07:41:18;586.97;;;162.98;;
22103;SDS011;11218;48.886;9.426;2022-11-03T07:43:49;597.53;;;164.85;;
22103;SDS011;11218;48.886;9.426;2022-11-03T07:46:23;587.20;;;161.68;;
22103;SDS011;11218;48.886;9.426;2022-11-03T07:48:53;590.30;;;162.98;;
22103;SDS011;11218;48.886;9.426;2022-11-03T07:51:23;604.33;;;169.25;;
22103;SDS011;11218;48.886;9.426;2022-11-03T07:53:53;592.95;;;168.73;;
22103;SDS011;11218;48.886;9.426;2022-11-03T07:56:31;596.97;;;168.02;;
22103;SDS011;11218;48.886;9.426;2022-11-03T07:59:03;593.97;;;167.18;;
22103;SDS011;11218;48.886;9.426;2022-11-03T08:01:39;599.78;;;171.20;;
22103;SDS011;11218;48.886;9.426;2022-11-03T08:04:11;599.75;;;173.00;;
22103;SDS011;11218;48.886;9.426;2022-11-03T08:06:42;601.38;;;172.30;;
22103;SDS011;11218;48.886;9.426;2022-11-03T08:09:11;595.45;;;168.38;;
22103;SDS011;11218;48.886;9.426;2022-11-03T08:11:39;594.17;;;171.40;;
22103;SDS011;11218;48.886;9.426;2022-11-03T08:14:07;593.42;;;168.13;;
22103;SDS011;11218;48.886;9.426;2022-11-03T08:16:35;596.75;;;171.45;;
22103;SDS011;11218;48.886;9.426;2022-11-03T08:19:04;603.75;;;172.43;;
22103;SDS011;11218;48.886;9.426;2022-11-03T08:21:34;608.50;;;177.82;;
22103;SDS011;11218;48.886;9.426;2022-11-03T08:24:05;600.92;;;175.05;;
22103;SDS011;11218;48.886;9.426;2022-11-03T08:26:33;590.25;;;170.73;;
22103;SDS011;11218;48.886;9.426;2022-11-03T08:29:01;600.28;;;176.18;;
22103;SDS011;11218;48.886;9.426;2022-11-03T08:31:29;600.05;;;177.52;;
22103;SDS011;11218;48.886;9.426;2022-11-03T08:33:56;608.70;;;179.38;;
22103;SDS011;11218;48.886;9.426;2022-11-03T08:36:24;611.47;;;183.55;;
22103;SDS011;11218;48.886;9.426;2022-11-03T08:38:54;602.08;;;179.18;;
22103;SDS011;11218;48.886;9.426;2022-11-03T08:41:22;604.53;;;180.07;;
22103;SDS011;11218;48.886;9.426;2022-11-03T08:43:51;602.05;;;179.15;;
22103;SDS011;11218;48.886;9.426;2022-11-03T08:46:19;608.33;;;180.77;;
22103;SDS011;11218;48.886;9.426;2022-11-03T08:48:47;605.05;;;179.48;;
22103;SDS011;11218;48.886;9.426;2022-11-03T08:51:15;599.10;;;174.93;;
22103;SDS011;11218;48.886;9.426;2022-11-03T08:53:43;611.03;;;182.10;;
22103;SDS011;11218;48.886;9.426;2022-11-03T08:56:17;598.20;;;174.90;;
22103;SDS011;11218;48.886;9.426;2022-11-03T08:58:48;603.03;;;180.15;;
22103;SDS011;11218;48.886;9.426;2022-11-03T09:01:15;601.38;;;181.15;;
22103;SDS011;11218;48.886;9.426;2022-11-03T09:03:44;602.05;;;178.13;;
22103;SDS011;11218;48.886;9.426;2022-11-03T09:06:12;605.17;;;183.35;;
22103;SDS011;11218;48.886;9.426;2022-11-03T09:08:40;610.25;;;185.60;;
22103;SDS011;11218;48.886;9.426;2022-11-03T09:11:29;609.45;;;181.88;;
22103;SDS011;11218;48.886;9.426;2022-11-03T09:13:57;613.63;;;184.00;;
22103;SDS011;11218;48.886;9.426;2022-11-03T09:16:25;603.60;;;180.57;;
22103;SDS011;11218;48.886;9.426;2022-11-03T09:18:53;607.85;;;180.77;;
22103;SDS011;11218;48.886;9.426;2022-11-03T09:21:21;615.70;;;189.25;;
22103;SDS011;11218;48.886;9.426;2022-11-03T09:23:49;618.78;;;192.88;;
22103;SDS011;11218;48.886;9.426;2022-11-03T09:26:17;611.10;;;188.02;;
22103;SDS011;11218;48.886;9.426;2022-11-03T09:28:46;622.33;;;193.20;;
22103;SDS011;11218;48.886;9.426;2022-11-03T09:31:16;674.20;;;217.63;;
22103;SDS011;11218;48.886;9.426;2022-11-03T09:33:44;607.35;;;181.88;;
22103;SDS011;11218;48.886;9.426;2022-11-03T09:36:12;615.22;;;189.13;;
22103;SDS011;11218;48.886;9.426;2022-11-03T09:38:46;602.33;;;182.27;;
22103;SDS011;11218;48.886;9.426;2022-11-03T09:41:44;612.15;;;185.98;;
22103;SDS011;11218;48.886;9.426;2022-11-03T09:44:25;604.50;;;182.55;;
22103;SDS011;11218;48.886;9.426;2022-11-03T09:46:53;614.58;;;189.43;;
22103;SDS011;11218;48.886;9.426;2022-11-03T09:49:23;612.92;;;189.95;;
22103;SDS011;11218;48.886;9.426;2022-11-03T09:51:52;615.40;;;193.65;;
22103;SDS011;11218;48.886;9.426;2022-11-03T09:54:23;608.00;;;188.80;;
22103;SDS011;11218;48.886;9.426;2022-11-03T09:56:53;618.70;;;192.82;;
22103;SDS011;11218;48.886;9.426;2022-11-03T09:59:25;606.05;;;189.73;;
22103;SDS011;11218;48.886;9.426;2022-11-03T10:01:53;614.30;;;192.20;;
22103;SDS011;11218;48.886;9.426;2022-11-03T10:04:24;612.38;;;193.93;;
22103;SDS011;11218;48.886;9.426;2022-11-03T10:06:54;612.83;;;191.88;;
22103;SDS011;11218;48.886;9.426;2022-11-03T10:09:23;611.05;;;191.20;;
22103;SDS011;11218;48.886;9.426;2022-11-03T10:11:55;617.33;;;195.05;;
22103;SDS011;11218;48.886;9.426;2022-11-03T10:14:26;610.15;;;193.30;;
22103;SDS011;11218;48.886;9.426;2022-11-03T10:16:58;623.28;;;203.30;;
22103;SDS011;11218;48.886;9.426;2022-11-03T10:19:32;616.95;;;197.85;;
22103;SDS011;11218;48.886;9.426;2022-11-03T10:22:00;616.25;;;198.27;;
22103;SDS011;11218;48.886;9.426;2022-11-03T10:24:28;613.28;;;196.52;;
22103;SDS011;11218;48.886;9.426;2022-11-03T10:26:56;619.13;;;201.65;;
22103;SDS011;11218;48.886;9.426;2022-11-03T10:29:27;613.22;;;198.13;;
22103;SDS011;11218;48.886;9.426;2022-11-03T10:32:10;613.60;;;198.82;;
22103;SDS011;11218;48.886;9.426;2022-11-03T10:34:56;606.75;;;191.25;;
22103;SDS011;11218;48.886;9.426;2022-11-03T10:37:24;606.75;;;192.45;;
22103;SDS011;11218;48.886;9.426;2022-11-03T10:39:59;614.28;;;199.90;;
22103;SDS011;11218;48.886;9.426;2022-11-03T10:43:09;620.50;;;201.68;;
22103;SDS011;11218;48.886;9.426;2022-11-03T10:45:41;612.10;;;197.98;;
22103;SDS011;11218;48.886;9.426;2022-11-03T10:48:11;614.60;;;197.50;;
22103;SDS011;11218;48.886;9.426;2022-11-03T10:50:39;616.30;;;199.43;;
22103;SDS011;11218;48.886;9.426;2022-11-03T10:53:10;623.45;;;204.85;;
22103;SDS011;11218;48.886;9.426;2022-11-03T10:55:43;622.20;;;199.55;;
22103;SDS011;11218;48.886;9.426;2022-11-03T11:01:04;619.60;;;201.35;;
22103;SDS011;11218;48.886;9.426;2022-11-03T11:03:33;617.97;;;205.00;;
22103;SDS011;11218;48.886;9.426;2022-11-03T11:06:05;625.58;;;206.55;;
22103;SDS011;11218;48.886;9.426;2022-11-03T11:08:46;621.70;;;204.15;;
22103;SDS011;11218;48.886;9.426;2022-11-03T11:11:15;616.47;;;202.75;;
22103;SDS011;11218;48.886;9.426;2022-11-03T11:13:44;613.83;;;203.82;;
22103;SDS011;11218;48.886;9.426;2022-11-03T11:19:15;619.58;;;200.05;;
22103;SDS011;11218;48.886;9.426;2022-11-03T11:24:55;631.15;;;212.18;;
22103;SDS011;11218;48.886;9.426;2022-11-03T11:27:53;617.13;;;204.85;;
22103;SDS011;11218;48.886;9.426;2022-11-03T11:33:33;627.17;;;207.68;;
22103;SDS011;11218;48.886;9.426;2022-11-03T11:36:04;613.08;;;202.20;;
22103;SDS011;11218;48.886;9.426;2022-11-03T11:42:10;616.40;;;203.00;;
22103;SDS011;11218;48.886;9.426;2022-11-03T11:44:50;617.22;;;202.63;;
22103;SDS011;11218;48.886;9.426;2022-11-03T11:47:27;619.45;;;204.60;;
22103;SDS011;11218;48.886;9.426;2022-11-03T11:50:23;616.53;;;203.43;;
22103;SDS011;11218;48.886;9.426;2022-11-03T11:52:55;613.10;;;201.07;;
22103;SDS011;11218;48.886;9.426;2022-11-03T11:55:33;618.83;;;206.43;;
22103;SDS011;11218;48.886;9.426;2022-11-03T11:58:11;612.88;;;200.57;;
22103;SDS011;11218;48.886;9.426;2022-11-03T12:03:35;608.55;;;199.35;;
22103;SDS011;11218;48.886;9.426;2022-11-03T12:06:07;619.63;;;208.70;;
22103;SDS011;11218;48.886;9.426;2022-11-03T12:08:39;617.33;;;206.02;;
22103;SDS011;11218;48.886;9.426;2022-11-03T12:11:08;610.92;;;200.77;;
22103;SDS011;11218;48.886;9.426;2022-11-03T12:13:45;614.38;;;205.48;;
22103;SDS011;11218;48.886;9.426;2022-11-03T12:16:29;614.05;;;204.65;;
22103;SDS011;11218;48.886;9.426;2022-11-03T12:22:06;606.13;;;199.82;;
22103;SDS011;11218;48.886;9.426;2022-11-03T12:24:46;607.65;;;201.23;;
22103;SDS011;11218;48.886;9.426;2022-11-03T12:30:16;613.30;;;204.07;;
22103;SDS011;11218;48.886;9.426;2022-11-03T12:32:45;611.95;;;202.68;;
22103;SDS011;11218;48.886;9.426;2022-11-03T12:35:13;611.33;;;205.55;;
22103;SDS011;11218;48.886;9.426;2022-11-03T12:37:43;615.10;;;207.52;;
22103;SDS011;11218;48.886;9.426;2022-11-03T12:40:12;614.50;;;207.13;;
22103;SDS011;11218;48.886;9.426;2022-11-03T12:42:40;616.15;;;207.98;;
22103;SDS011;11218;48.886;9.426;2022-11-03T12:45:08;616.75;;;206.77;;
22103;SDS011;11218;48.886;9.426;2022-11-03T12:47:39;615.97;;;205.38;;
22103;SDS011;11218;48.886;9.426;2022-11-03T12:50:07;652.97;;;227.43;;
22103;SDS011;11218;48.886;9.426;2022-11-03T12:52:36;642.90;;;220.45;;
22103;SDS011;11218;48.886;9.426;2022-11-03T12:55:08;620.55;;;212.32;;
22103;SDS011;11218;48.886;9.426;2022-11-03T12:57:36;615.42;;;206.10;;
22103;SDS011;11218;48.886;9.426;2022-11-03T13:00:05;618.88;;;213.05;;
22103;SDS011;11218;48.886;9.426;2022-11-03T13:02:33;616.45;;;209.25;;
22103;SDS011;11218;48.886;9.426;2022-11-03T13:05:02;614.55;;;207.75;;
22103;SDS011;11218;48.886;9.426;2022-11-03T13:07:30;616.88;;;209.00;;
22103;SDS011;11218;48.886;9.426;2022-11-03T13:10:00;615.33;;;207.80;;
22103;SDS011;11218;48.886;9.426;2022-11-03T13:12:31;615.90;;;207.15;;
22103;SDS011;11218;48.886;9.426;2022-11-03T13:15:03;631.97;;;218.57;;
22103;SDS011;11218;48.886;9.426;2022-11-03T13:17:32;624.42;;;212.48;;
22103;SDS011;11218;48.886;9.426;2022-11-03T13:20:20;611.95;;;203.50;;
22103;SDS011;11218;48.886;9.426;2022-11-03T13:22:48;613.55;;;205.52;;
22103;SDS011;11218;48.886;9.426;2022-11-03T13:25:16;625.97;;;213.70;;
22103;SDS011;11218;48.886;9.426;2022-11-03T13:27:46;612.22;;;206.25;;
22103;SDS011;11218;48.886;9.426;2022-11-03T13:30:19;615.70;;;207.48;;
22103;SDS011;11218;48.886;9.426;2022-11-03T13:32:47;622.80;;;213.25;;
22103;SDS011;11218;48.886;9.426;2022-11-03T13:35:15;621.38;;;212.85;;
22103;SDS011;11218;48.886;9.426;2022-11-03T13:37:43;621.70;;;209.95;;
22103;SDS011;11218;48.886;9.426;2022-11-03T13:40:12;621.70;;;212.75;;
22103;SDS011;11218;48.886;9.426;2022-11-03T13:43:01;620.05;;;211.27;;
22103;SDS011;11218;48.886;9.426;2022-11-03T13:45:30;627.45;;;213.35;;
22103;SDS011;11218;48.886;9.426;2022-11-03T13:47:58;615.50;;;206.38;;
22103;SDS011;11218;48.886;9.426;2022-11-03T13:50:45;617.45;;;206.88;;
22103;SDS011;11218;48.886;9.426;2022-11-03T13:53:16;626.08;;;213.27;;
22103;SDS011;11218;48.886;9.426;2022-11-03T13:56:04;619.33;;;212.00;;
22103;SDS011;11218;48.886;9.426;2022-11-03T13:58:37;625.22;;;210.60;;
22103;SDS011;11218;48.886;9.426;2022-11-03T14:01:25;623.00;;;211.27;;
22103;SDS011;11218;48.886;9.426;2022-11-03T14:03:53;616.00;;;211.02;;
22103;SDS011;11218;48.886;9.426;2022-11-03T14:06:41;612.63;;;203.43;;
22103;SDS011;11218;48.886;9.426;2022-11-03T14:09:09;622.22;;;207.77;;
22103;SDS011;11218;48.886;9.426;2022-11-03T14:11:37;620.17;;;205.25;;
22103;SDS011;11218;48.886;9.426;2022-11-03T14:14:24;613.80;;;204.23;;
22103;SDS011;11218;48.886;9.426;2022-11-03T14:16:52;620.35;;;209.45;;
22103;SDS011;11218;48.886;9.426;2022-11-03T14:19:19;625.38;;;216.15;;
22103;SDS011;11218;48.886;9.426;2022-11-03T14:22:00;617.47;;;209.82;;
22103;SDS011;11218;48.886;9.426;2022-11-03T14:24:28;618.72;;;210.73;;
22103;SDS011;11218;48.886;9.426;2022-11-03T14:26:56;618.13;;;209.38;;
22103;SDS011;11218;48.886;9.426;2022-11-03T14:29:25;623.60;;;211.77;;
22103;SDS011;11218;48.886;9.426;2022-11-03T14:31:54;621.17;;;211.25;;
22103;SDS011;11218;48.886;9.426;2022-11-03T14:34:22;615.35;;;210.43;;
22103;SDS011;11218;48.886;9.426;2022-11-03T14:36:51;623.40;;;213.48;;
22103;SDS011;11218;48.886;9.426;2022-11-03T14:39:22;613.95;;;203.68;;
22103;SDS011;11218;48.886;9.426;2022-11-03T14:41:50;620.10;;;213.82;;
22103;SDS011;11218;48.886;9.426;2022-11-03T14:44:33;619.80;;;207.32;;
22103;SDS011;11218;48.886;9.426;2022-11-03T14:47:04;609.13;;;206.43;;
22103;SDS011;11218;48.886;9.426;2022-11-03T14:49:34;613.63;;;207.05;;
22103;SDS011;11218;48.886;9.426;2022-11-03T14:52:03;610.25;;;202.27;;